Time;durP1;ratioP1;P1;durP2;ratioP2;P2;SDS_P1;SDS_P2;PMS_P1;PMS_P2;Temp;Humidity;BMP_temperature;BMP_pressure;BME280_temperature;BME280_humidity;BME280_pressure;Samples;Min_cycle;Max_cycle;Signal;HPM_P1;HPM_P2
2022/02/24 00:01:51;;;;;;;12.38;4.75;;;;;;;;;;4979028;28;20128;-78
2022/02/24 00:04:17;;;;;;;14.90;4.68;;;;;;;;;;5011832;28;20027;-80
2022/02/24 00:06:43;;;;;;;14.55;5.05;;;;;;;;;;5011562;28;20073;-78
2022/02/24 00:09:09;;;;;;;9.57;3.95;;;;;;;;;;5011667;28;20054;-79
2022/02/24 00:11:36;;;;;;;9.15;3.58;;;;;;;;;;4996644;28;20022;-78
2022/02/24 00:14:02;;;;;;;10.55;4.55;;;;;;;;;;5011621;28;20052;-78
2022/02/24 00:16:28;;;;;;;14.20;4.88;;;;;;;;;;5011675;28;20081;-79
2022/02/24 00:18:54;;;;;;;13.32;5.35;;;;;;;;;;4996596;28;20034;-79
2022/02/24 00:21:21;;;;;;;13.75;5.20;;;;;;;;;;5011549;28;20026;-78
2022/02/24 00:23:48;;;;;;;11.77;4.18;;;;;;;;;;4996458;28;20031;-78
2022/02/24 00:26:14;;;;;;;6.95;3.65;;;;;;;;;;5011578;28;20072;-78
2022/02/24 00:28:40;;;;;;;12.68;3.70;;;;;;;;;;5011385;28;20052;-80
2022/02/24 00:31:08;;;;;;;14.55;4.65;;;;;;;;;;5011510;28;20042;-78
2022/02/24 00:33:35;;;;;;;12.98;4.68;;;;;;;;;;5011857;28;20074;-78
2022/02/24 00:36:01;;;;;;;16.15;5.47;;;;;;;;;;5011352;28;20033;-79
2022/02/24 00:38:27;;;;;;;11.65;4.35;;;;;;;;;;5011304;28;20030;-79
2022/02/24 00:40:53;;;;;;;10.57;3.83;;;;;;;;;;5011417;28;20030;-76
2022/02/24 00:43:19;;;;;;;10.70;3.30;;;;;;;;;;4996336;28;20038;-79
2022/02/24 00:45:46;;;;;;;8.88;3.72;;;;;;;;;;5011774;28;20026;-76
2022/02/24 00:48:12;;;;;;;12.52;3.15;;;;;;;;;;4996244;28;20379;-77
2022/02/24 00:50:39;;;;;;;9.95;2.65;;;;;;;;;;5011711;28;20022;-79
2022/02/24 00:53:06;;;;;;;6.38;2.92;;;;;;;;;;5011588;28;20041;-79
2022/02/24 00:55:33;;;;;;;9.63;3.30;;;;;;;;;;4998056;28;20030;-78
2022/02/24 00:57:59;;;;;;;5.85;2.88;;;;;;;;;;5012538;28;20030;-78
2022/02/24 01:00:25;;;;;;;12.88;4.35;;;;;;;;;;5011535;28;20052;-79
2022/02/24 01:02:52;;;;;;;10.75;4.53;;;;;;;;;;4999147;28;20411;-79
2022/02/24 01:05:18;;;;;;;15.35;5.35;;;;;;;;;;4977277;28;20027;-80
2022/02/24 01:07:44;;;;;;;15.45;5.47;;;;;;;;;;4977444;28;20034;-79
2022/02/24 01:10:10;;;;;;;16.38;5.20;;;;;;;;;;4964705;28;20022;-80
2022/02/24 01:12:37;;;;;;;14.57;5.22;;;;;;;;;;4958872;28;20077;-79
2022/02/24 01:15:06;;;;;;;13.48;4.75;;;;;;;;;;4976120;28;20031;-80
2022/02/24 01:17:43;;;;;;;15.75;4.60;;;;;;;;;;4958717;28;20046;-79
2022/02/24 01:20:10;;;;;;;11.52;4.18;;;;;;;;;;4976134;28;20030;-79
2022/02/24 01:22:36;;;;;;;14.60;4.22;;;;;;;;;;4975838;28;20035;-79
2022/02/24 01:25:04;;;;;;;13.63;4.75;;;;;;;;;;4958597;28;20019;-79
2022/02/24 01:27:31;;;;;;;9.45;4.15;;;;;;;;;;4975912;28;20027;-79
2022/02/24 01:29:58;;;;;;;18.92;5.97;;;;;;;;;;4958626;28;20045;-78
2022/02/24 01:32:24;;;;;;;17.50;5.85;;;;;;;;;;4958787;28;20169;-81
2022/02/24 01:34:58;;;;;;;20.77;6.43;;;;;;;;;;4958342;28;20023;-79
2022/02/24 01:37:24;;;;;;;20.25;5.82;;;;;;;;;;4958584;28;20077;-80
2022/02/24 01:39:50;;;;;;;17.55;6.25;;;;;;;;;;4958365;28;20030;-79
2022/02/24 01:42:16;;;;;;;20.63;6.20;;;;;;;;;;4958318;28;20403;-79
2022/02/24 01:44:44;;;;;;;20.65;7.68;;;;;;;;;;4975551;28;20030;-79
2022/02/24 01:47:11;;;;;;;17.55;7.95;;;;;;;;;;4975740;28;20027;-78
2022/02/24 01:49:38;;;;;;;21.42;7.35;;;;;;;;;;4958411;28;20038;-80
2022/02/24 01:52:05;;;;;;;37.45;11.43;;;;;;;;;;4958259;28;20027;-77
2022/02/24 01:54:33;;;;;;;26.77;11.15;;;;;;;;;;4957364;28;20035;-79
2022/02/24 01:57:00;;;;;;;35.22;10.48;;;;;;;;;;4958014;28;20542;-79
2022/02/24 01:59:26;;;;;;;29.13;11.02;;;;;;;;;;4958608;28;20364;-80
2022/02/24 02:01:52;;;;;;;42.03;14.35;;;;;;;;;;4961712;28;20054;-79
2022/02/24 02:04:18;;;;;;;38.45;13.10;;;;;;;;;;4977389;28;20030;-81
2022/02/24 02:06:45;;;;;;;30.80;12.15;;;;;;;;;;4977194;28;20483;-79
2022/02/24 02:09:11;;;;;;;28.30;10.52;;;;;;;;;;4977443;28;20123;-80
2022/02/24 02:11:37;;;;;;;42.72;10.88;;;;;;;;;;4976979;28;20080;-79
2022/02/24 02:14:04;;;;;;;31.75;11.35;;;;;;;;;;4977132;28;20398;-79
2022/02/24 02:16:30;;;;;;;28.98;9.82;;;;;;;;;;4994696;28;20026;-80
2022/02/24 02:18:57;;;;;;;23.13;9.18;;;;;;;;;;4978464;28;20038;-81
2022/02/24 02:21:23;;;;;;;27.38;9.63;;;;;;;;;;4994978;28;20091;-81
2022/02/24 02:23:49;;;;;;;25.00;8.77;;;;;;;;;;5009456;28;20030;-80
2022/02/24 02:26:15;;;;;;;23.02;8.43;;;;;;;;;;4977142;28;20019;-79
2022/02/24 02:28:41;;;;;;;22.63;8.70;;;;;;;;;;4994721;28;20030;-79
2022/02/24 02:31:07;;;;;;;22.27;8.63;;;;;;;;;;5009641;28;20541;-79
2022/02/24 02:33:34;;;;;;;21.35;8.65;;;;;;;;;;4994460;28;20042;-79
2022/02/24 02:36:00;;;;;;;25.25;10.13;;;;;;;;;;5009649;28;20367;-79
2022/02/24 02:38:26;;;;;;;24.58;8.18;;;;;;;;;;4977547;28;20026;-79
2022/02/24 02:40:52;;;;;;;23.15;8.25;;;;;;;;;;4995430;28;20026;-78
2022/02/24 02:43:18;;;;;;;20.25;8.00;;;;;;;;;;5010515;28;20470;-79
2022/02/24 02:45:44;;;;;;;25.58;8.50;;;;;;;;;;5011460;28;20026;-77
2022/02/24 02:48:10;;;;;;;20.90;6.82;;;;;;;;;;5013304;28;20033;-78
2022/02/24 02:50:36;;;;;;;23.38;8.40;;;;;;;;;;5009700;28;20026;-81
2022/02/24 02:53:03;;;;;;;23.85;7.63;;;;;;;;;;4994328;28;20044;-78
2022/02/24 02:55:30;;;;;;;21.95;7.50;;;;;;;;;;5009214;28;20471;-83
2022/02/24 02:57:56;;;;;;;28.98;8.60;;;;;;;;;;5009425;28;20036;-78
2022/02/24 03:00:22;;;;;;;20.55;7.65;;;;;;;;;;4994393;28;20033;-79
2022/02/24 03:02:49;;;;;;;23.10;7.55;;;;;;;;;;4997483;28;20069;-78
2022/02/24 03:05:15;;;;;;;15.00;6.20;;;;;;;;;;4958641;28;20030;-78
2022/02/24 03:07:41;;;;;;;15.73;5.78;;;;;;;;;;4961173;28;20034;-77
2022/02/24 03:10:08;;;;;;;19.10;5.85;;;;;;;;;;4961245;28;20045;-78
2022/02/24 03:12:36;;;;;;;14.50;5.57;;;;;;;;;;4978646;28;20387;-78
2022/02/24 03:15:08;;;;;;;12.30;5.05;;;;;;;;;;4961412;28;20035;-79
2022/02/24 03:17:35;;;;;;;16.95;6.32;;;;;;;;;;4961319;28;20158;-79
2022/02/24 03:20:01;;;;;;;20.30;7.10;;;;;;;;;;4961897;28;20031;-78
2022/02/24 03:22:27;;;;;;;24.60;7.10;;;;;;;;;;4978665;28;20023;-78
2022/02/24 03:24:53;;;;;;;17.52;5.75;;;;;;;;;;4961000;28;20030;-78
2022/02/24 03:27:20;;;;;;;16.30;6.15;;;;;;;;;;4960752;28;20027;-78
2022/02/24 03:29:46;;;;;;;18.83;6.38;;;;;;;;;;4978406;28;20465;-79
2022/02/24 03:32:14;;;;;;;15.45;5.70;;;;;;;;;;4960680;28;20034;-78
2022/02/24 03:34:40;;;;;;;12.20;5.13;;;;;;;;;;4960810;28;20042;-79
2022/02/24 03:37:06;;;;;;;18.63;5.63;;;;;;;;;;4960958;28;20033;-78
2022/02/24 03:39:33;;;;;;;18.42;5.53;;;;;;;;;;4960875;28;20493;-79
2022/02/24 03:42:00;;;;;;;17.25;5.95;;;;;;;;;;4978058;28;20033;-79
2022/02/24 03:44:26;;;;;;;14.77;6.35;;;;;;;;;;4960961;28;20046;-79
2022/02/24 03:46:52;;;;;;;15.43;6.63;;;;;;;;;;4960702;28;20474;-78
2022/02/24 03:49:18;;;;;;;18.63;7.65;;;;;;;;;;4978247;28;20030;-80
2022/02/24 03:51:44;;;;;;;18.30;6.28;;;;;;;;;;4960806;28;20531;-78
2022/02/24 03:54:11;;;;;;;14.85;6.57;;;;;;;;;;4960178;28;20035;-79
2022/02/24 03:56:37;;;;;;;15.45;5.80;;;;;;;;;;4960342;28;20050;-81
2022/02/24 03:59:03;;;;;;;20.15;6.40;;;;;;;;;;4960684;28;20055;-77
2022/02/24 04:01:29;;;;;;;23.20;7.30;;;;;;;;;;4978523;28;20027;-80
2022/02/24 04:03:55;;;;;;;17.15;6.07;;;;;;;;;;5012239;28;20042;-79
2022/02/24 04:06:23;;;;;;;13.85;6.00;;;;;;;;;;4997476;28;20467;-79
2022/02/24 04:08:49;;;;;;;18.63;7.28;;;;;;;;;;5012542;28;20121;-78
2022/02/24 04:11:16;;;;;;;20.88;7.55;;;;;;;;;;5012503;28;20398;-80
2022/02/24 04:13:42;;;;;;;17.05;6.00;;;;;;;;;;5012210;28;20446;-79
2022/02/24 04:16:09;;;;;;;17.50;6.50;;;;;;;;;;5012119;28;20026;-77
2022/02/24 04:18:35;;;;;;;19.25;6.85;;;;;;;;;;4996752;28;20037;-79
2022/02/24 04:21:01;;;;;;;19.17;6.68;;;;;;;;;;5012101;28;20436;-79
2022/02/24 04:23:27;;;;;;;17.15;5.57;;;;;;;;;;5013907;28;20038;-79
2022/02/24 04:25:53;;;;;;;16.20;6.10;;;;;;;;;;5014320;28;20037;-79
2022/02/24 04:28:19;;;;;;;13.38;5.72;;;;;;;;;;4996620;28;20402;-78
2022/02/24 04:30:46;;;;;;;16.15;6.57;;;;;;;;;;5011826;28;20022;-79
2022/02/24 04:33:12;;;;;;;20.50;5.78;;;;;;;;;;5011850;28;20042;-84
2022/02/24 04:35:38;;;;;;;13.25;5.10;;;;;;;;;;5011609;28;20022;-79
2022/02/24 04:38:04;;;;;;;17.23;5.47;;;;;;;;;;4996397;28;20088;-78
2022/02/24 04:40:30;;;;;;;20.95;6.18;;;;;;;;;;5011480;28;20026;-79
2022/02/24 04:42:57;;;;;;;10.35;5.13;;;;;;;;;;5011272;28;20042;-78
2022/02/24 04:45:23;;;;;;;16.20;5.82;;;;;;;;;;4996482;28;20475;-78
2022/02/24 04:47:50;;;;;;;15.20;6.22;;;;;;;;;;5011335;28;20041;-79
2022/02/24 04:50:16;;;;;;;16.13;6.25;;;;;;;;;;5011532;28;20019;-78
2022/02/24 04:52:42;;;;;;;14.27;5.40;;;;;;;;;;5011184;28;20026;-78
2022/02/24 04:55:09;;;;;;;15.27;5.97;;;;;;;;;;5011288;28;20077;-78
2022/02/24 04:57:37;;;;;;;20.50;7.75;;;;;;;;;;4996071;28;20054;-79
2022/02/24 05:00:04;;;;;;;16.88;6.00;;;;;;;;;;5011142;28;20069;-78
2022/02/24 05:02:31;;;;;;;22.65;7.70;;;;;;;;;;5001920;28;20415;-77
2022/02/24 05:04:57;;;;;;;16.70;6.60;;;;;;;;;;4958801;28;20089;-77
2022/02/24 05:07:23;;;;;;;12.23;6.20;;;;;;;;;;4958048;28;20113;-77
2022/02/24 05:09:49;;;;;;;19.83;7.15;;;;;;;;;;4957524;28;20035;-78
2022/02/24 05:12:15;;;;;;;19.02;6.38;;;;;;;;;;4958435;28;20034;-78
2022/02/24 05:14:41;;;;;;;12.90;5.72;;;;;;;;;;4976103;28;20038;-79
2022/02/24 05:17:07;;;;;;;13.60;6.07;;;;;;;;;;4958825;28;20391;-78
2022/02/24 05:19:34;;;;;;;16.65;5.80;;;;;;;;;;4958869;28;20475;-77
2022/02/24 05:22:00;;;;;;;13.50;6.13;;;;;;;;;;4958966;28;20034;-78
2022/02/24 05:24:26;;;;;;;18.55;5.70;;;;;;;;;;4959197;28;20113;-78
2022/02/24 05:26:52;;;;;;;20.33;5.68;;;;;;;;;;4959143;28;20097;-78
2022/02/24 05:29:18;;;;;;;17.08;6.10;;;;;;;;;;4975958;28;20109;-78
2022/02/24 05:31:44;;;;;;;20.50;8.07;;;;;;;;;;4976345;28;20023;-78
2022/02/24 05:34:10;;;;;;;21.70;8.52;;;;;;;;;;4958656;28;20061;-78
2022/02/24 05:36:38;;;;;;;23.83;8.13;;;;;;;;;;4975996;28;20031;-79
2022/02/24 05:39:04;;;;;;;24.80;9.20;;;;;;;;;;4958442;28;20027;-78
2022/02/24 05:41:30;;;;;;;28.48;11.02;;;;;;;;;;4976235;28;20547;-79
2022/02/24 05:43:56;;;;;;;29.50;11.32;;;;;;;;;;4975536;28;20431;-79
2022/02/24 05:46:23;;;;;;;27.88;11.57;;;;;;;;;;4958182;28;20057;-79
2022/02/24 05:48:49;;;;;;;26.90;10.05;;;;;;;;;;4958331;28;20125;-79
2022/02/24 05:51:15;;;;;;;18.60;7.13;;;;;;;;;;4958197;28;20022;-80
2022/02/24 05:53:41;;;;;;;18.48;6.88;;;;;;;;;;4975777;28;20104;-77
2022/02/24 05:56:07;;;;;;;20.88;7.07;;;;;;;;;;4958160;28;20117;-78
2022/02/24 05:58:33;;;;;;;16.92;7.03;;;;;;;;;;4958378;28;20074;-77
2022/02/24 06:01:00;;;;;;;19.45;7.07;;;;;;;;;;4977002;28;20027;-79
2022/02/24 06:03:26;;;;;;;25.23;7.55;;;;;;;;;;4992580;28;20120;-77
2022/02/24 06:05:53;;;;;;;15.50;6.75;;;;;;;;;;4994668;28;20533;-77
2022/02/24 06:08:20;;;;;;;23.90;7.20;;;;;;;;;;5009519;28;20030;-77
2022/02/24 06:10:46;;;;;;;13.50;6.95;;;;;;;;;;5009625;28;20037;-77
2022/02/24 06:13:14;;;;;;;18.67;7.78;;;;;;;;;;5009346;28;20120;-78
2022/02/24 06:15:40;;;;;;;15.90;8.00;;;;;;;;;;5009423;28;20067;-78
2022/02/24 06:18:07;;;;;;;19.50;7.55;;;;;;;;;;4994349;28;20042;-76
2022/02/24 06:20:33;;;;;;;19.33;8.35;;;;;;;;;;5008130;28;20145;-77
2022/02/24 06:22:59;;;;;;;30.67;10.07;;;;;;;;;;4993803;28;20037;-76
2022/02/24 06:25:25;;;;;;;25.85;10.63;;;;;;;;;;4977603;28;20026;-76
2022/02/24 06:27:51;;;;;;;21.25;10.13;;;;;;;;;;5011253;28;20026;-76
2022/02/24 06:30:17;;;;;;;21.00;10.45;;;;;;;;;;4995600;28;20022;-78
2022/02/24 06:33:07;;;;;;;24.50;10.40;;;;;;;;;;4991581;28;20042;-78
2022/02/24 06:35:38;;;;;;;25.20;9.02;;;;;;;;;;4959322;29;20035;-81
2022/02/24 06:38:05;;;;;;;17.42;8.50;;;;;;;;;;5006650;28;20076;-80
2022/02/24 06:40:31;;;;;;;17.33;7.60;;;;;;;;;;4993413;28;20085;-80
2022/02/24 06:42:58;;;;;;;15.63;8.18;;;;;;;;;;4994073;28;20034;-81
2022/02/24 06:45:24;;;;;;;16.60;7.82;;;;;;;;;;4993115;28;20081;-81
2022/02/24 06:47:50;;;;;;;17.70;7.57;;;;;;;;;;4976427;28;20126;-81
2022/02/24 06:50:16;;;;;;;13.77;7.03;;;;;;;;;;4977674;28;20077;-81
2022/02/24 06:52:43;;;;;;;11.57;6.35;;;;;;;;;;4976375;28;20032;-82
2022/02/24 06:55:10;;;;;;;13.40;6.50;;;;;;;;;;4978931;28;20031;-80
2022/02/24 06:57:37;;;;;;;16.33;6.43;;;;;;;;;;4976209;28;20117;-81
2022/02/24 07:00:04;;;;;;;16.50;6.43;;;;;;;;;;4976317;28;20034;-81
2022/02/24 07:02:30;;;;;;;13.35;6.35;;;;;;;;;;4984054;28;20123;-81
2022/02/24 07:04:56;;;;;;;11.70;5.32;;;;;;;;;;4956424;28;20035;-78
2022/02/24 07:07:22;;;;;;;16.13;4.70;;;;;;;;;;4956092;28;20031;-80
2022/02/24 07:09:49;;;;;;;9.55;4.70;;;;;;;;;;4973982;28;20114;-80
2022/02/24 07:12:15;;;;;;;8.80;4.45;;;;;;;;;;4973877;28;20767;-81
2022/02/24 07:14:41;;;;;;;11.75;4.13;;;;;;;;;;4956835;28;20130;-81
2022/02/24 07:17:07;;;;;;;12.43;4.03;;;;;;;;;;4956609;28;20534;-78
2022/02/24 07:19:34;;;;;;;11.43;4.28;;;;;;;;;;4974211;28;20111;-79
2022/02/24 07:22:00;;;;;;;8.95;4.35;;;;;;;;;;4974163;28;20031;-78
2022/02/24 07:24:26;;;;;;;17.33;4.88;;;;;;;;;;4974268;28;20105;-79
2022/02/24 07:26:53;;;;;;;14.00;4.85;;;;;;;;;;4956749;28;20034;-80
2022/02/24 07:29:19;;;;;;;11.32;4.35;;;;;;;;;;4961869;28;20102;-80
2022/02/24 07:31:45;;;;;;;12.25;5.03;;;;;;;;;;4956866;28;20073;-79
2022/02/24 07:34:11;;;;;;;15.90;4.82;;;;;;;;;;4956368;28;20042;-79
2022/02/24 07:36:39;;;;;;;10.98;4.40;;;;;;;;;;4956881;28;20545;-79
2022/02/24 07:39:10;;;;;;;16.88;6.25;;;;;;;;;;4974122;28;20089;-80
2022/02/24 07:41:37;;;;;;;14.05;6.55;;;;;;;;;;4957217;28;20125;-79
2022/02/24 07:44:03;;;;;;;14.52;6.15;;;;;;;;;;4959653;28;20166;-79
2022/02/24 07:46:29;;;;;;;12.68;6.15;;;;;;;;;;4956601;28;20034;-81
2022/02/24 07:48:55;;;;;;;18.92;6.30;;;;;;;;;;4956638;28;20364;-80
2022/02/24 07:51:22;;;;;;;16.95;5.70;;;;;;;;;;4956699;28;20114;-80
2022/02/24 07:53:48;;;;;;;9.65;4.78;;;;;;;;;;4959594;28;20075;-80
2022/02/24 07:56:14;;;;;;;15.65;5.75;;;;;;;;;;4960169;28;20026;-79
2022/02/24 07:58:40;;;;;;;12.18;5.47;;;;;;;;;;4960092;28;20375;-80
2022/02/24 08:01:06;;;;;;;16.67;4.95;;;;;;;;;;4959874;28;20113;-80
2022/02/24 08:03:33;;;;;;;6.63;3.53;;;;;;;;;;4960282;28;20055;-79
2022/02/24 08:05:59;;;;;;;9.18;4.00;;;;;;;;;;4977142;28;20019;-81
2022/02/24 08:08:25;;;;;;;13.73;4.88;;;;;;;;;;4977150;28;20490;-81
2022/02/24 08:10:51;;;;;;;9.40;4.50;;;;;;;;;;4959112;28;20026;-79
2022/02/24 08:13:18;;;;;;;7.93;3.90;;;;;;;;;;4958433;28;20391;-80
2022/02/24 08:15:44;;;;;;;8.35;3.72;;;;;;;;;;4969112;28;20050;-81
2022/02/24 08:18:10;;;;;;;10.43;4.43;;;;;;;;;;4957949;28;20026;-79
2022/02/24 08:20:36;;;;;;;6.97;3.72;;;;;;;;;;4975303;28;20026;-76
2022/02/24 08:23:04;;;;;;;6.78;3.75;;;;;;;;;;4969179;28;20101;-78
2022/02/24 08:25:31;;;;;;;6.90;3.60;;;;;;;;;;4957231;28;20518;-77
2022/02/24 08:27:58;;;;;;;7.63;3.50;;;;;;;;;;4958717;28;20034;-77
2022/02/24 08:30:24;;;;;;;8.23;3.92;;;;;;;;;;4958534;28;20038;-77
2022/02/24 08:32:51;;;;;;;8.75;4.20;;;;;;;;;;4958424;28;20372;-77
2022/02/24 08:35:18;;;;;;;11.68;4.47;;;;;;;;;;4957807;28;20035;-78
2022/02/24 08:37:47;;;;;;;9.82;4.38;;;;;;;;;;4957170;28;20018;-77
2022/02/24 08:40:14;;;;;;;6.13;2.83;;;;;;;;;;4957650;28;20034;-78
2022/02/24 08:42:40;;;;;;;7.82;3.67;;;;;;;;;;4957672;28;20453;-77
2022/02/24 08:45:06;;;;;;;9.80;4.25;;;;;;;;;;4974527;28;20435;-79
2022/02/24 08:47:32;;;;;;;9.15;3.95;;;;;;;;;;4958957;28;20026;-77
2022/02/24 08:49:58;;;;;;;9.70;3.50;;;;;;;;;;4958758;28;20027;-80
2022/02/24 08:52:25;;;;;;;6.30;2.45;;;;;;;;;;4958697;28;20397;-78
2022/02/24 08:54:51;;;;;;;11.15;3.30;;;;;;;;;;4958344;28;20030;-79
2022/02/24 08:57:17;;;;;;;7.50;3.58;;;;;;;;;;4975230;28;20110;-77
2022/02/24 08:59:43;;;;;;;8.65;3.00;;;;;;;;;;4958726;28;20034;-76
2022/02/24 09:02:09;;;;;;;6.78;2.97;;;;;;;;;;4963994;28;20050;-76
2022/02/24 09:04:36;;;;;;;23.80;4.70;;;;;;;;;;4995200;28;20089;-76
2022/02/24 09:07:02;;;;;;;10.48;3.35;;;;;;;;;;4977961;28;20094;-79
2022/02/24 09:09:28;;;;;;;15.95;4.10;;;;;;;;;;4995268;28;20073;-76
2022/02/24 09:11:54;;;;;;;8.73;3.60;;;;;;;;;;4977739;28;20489;-75
2022/02/24 09:14:20;;;;;;;7.78;2.90;;;;;;;;;;4977696;28;20038;-75
2022/02/24 09:16:46;;;;;;;4.88;2.30;;;;;;;;;;4977381;28;20030;-76
2022/02/24 09:19:12;;;;;;;8.32;2.75;;;;;;;;;;4995286;28;20419;-77
2022/02/24 09:21:39;;;;;;;7.00;2.78;;;;;;;;;;4977278;28;20022;-77
2022/02/24 09:24:05;;;;;;;5.75;2.50;;;;;;;;;;5000339;28;20026;-77
2022/02/24 09:26:36;;;;;;;10.82;3.55;;;;;;;;;;4979174;28;20026;-77
2022/02/24 09:29:04;;;;;;;7.25;2.53;;;;;;;;;;4973013;28;20049;-77
2022/02/24 09:31:31;;;;;;;9.63;3.35;;;;;;;;;;4977258;28;20041;-79
2022/02/24 09:33:57;;;;;;;4.25;2.33;;;;;;;;;;4977443;28;20137;-83
2022/02/24 09:36:23;;;;;;;6.28;2.97;;;;;;;;;;4994684;28;20022;-81
2022/02/24 09:38:51;;;;;;;8.40;3.17;;;;;;;;;;4977337;28;20042;-78
2022/02/24 09:41:18;;;;;;;7.25;3.17;;;;;;;;;;4994227;28;20023;-78
2022/02/24 09:43:45;;;;;;;8.05;2.97;;;;;;;;;;4994491;28;20026;-77
2022/02/24 09:46:12;;;;;;;7.18;2.83;;;;;;;;;;4994120;28;20030;-83
2022/02/24 09:48:42;;;;;;;8.80;3.20;;;;;;;;;;4994209;28;20029;-79
2022/02/24 09:51:11;;;;;;;8.23;3.30;;;;;;;;;;4976993;28;20040;-79
2022/02/24 09:53:38;;;;;;;7.10;3.10;;;;;;;;;;4976871;28;20082;-78
2022/02/24 09:56:04;;;;;;;7.57;3.47;;;;;;;;;;4994667;28;20019;-78
2022/02/24 09:58:33;;;;;;;6.70;3.17;;;;;;;;;;4994497;28;20031;-79
2022/02/24 10:01:02;;;;;;;5.40;3.17;;;;;;;;;;5009677;28;20030;-81
2022/02/24 10:03:40;;;;;;;9.63;3.10;;;;;;;;;;4978814;28;20055;-80
2022/02/24 10:06:07;;;;;;;15.30;2.83;;;;;;;;;;4957651;28;20035;-80
2022/02/24 10:08:34;;;;;;;6.80;2.30;;;;;;;;;;4957762;28;20029;-80
2022/02/24 10:11:01;;;;;;;9.27;2.58;;;;;;;;;;4957556;28;20107;-78
2022/02/24 10:13:28;;;;;;;5.20;1.88;;;;;;;;;;4957342;28;20031;-77
2022/02/24 10:15:56;;;;;;;6.88;2.55;;;;;;;;;;4956702;28;20053;-79
2022/02/24 10:18:26;;;;;;;4.28;2.25;;;;;;;;;;4957457;28;20034;-80
2022/02/24 10:20:57;;;;;;;9.90;2.45;;;;;;;;;;4957394;28;20023;-77
2022/02/24 10:23:31;;;;;;;4.28;1.48;;;;;;;;;;4974709;28;20062;-79
2022/02/24 10:26:00;;;;;;;8.27;2.17;;;;;;;;;;4957423;28;20034;-79
2022/02/24 10:28:29;;;;;;;7.30;1.80;;;;;;;;;;4974173;28;20061;-79
2022/02/24 10:30:55;;;;;;;6.53;2.60;;;;;;;;;;4957333;28;20034;-79
2022/02/24 10:33:26;;;;;;;4.47;1.70;;;;;;;;;;4974376;28;20880;-77
2022/02/24 10:35:56;;;;;;;3.47;1.95;;;;;;;;;;4957509;28;20085;-77
2022/02/24 10:38:28;;;;;;;4.25;1.92;;;;;;;;;;4957187;28;20022;-77
2022/02/24 10:40:56;;;;;;;4.53;1.95;;;;;;;;;;4957060;28;20030;-77
2022/02/24 10:43:24;;;;;;;3.58;1.70;;;;;;;;;;4957108;28;20035;-77
2022/02/24 10:46:06;;;;;;;4.35;1.00;;;;;;;;;;4957243;28;20525;-77
2022/02/24 10:48:54;;;;;;;3.30;1.05;;;;;;;;;;4974458;28;20398;-79
2022/02/24 10:51:25;;;;;;;7.10;1.42;;;;;;;;;;4957248;28;20475;-76
2022/02/24 10:54:04;;;;;;;8.90;0.85;;;;;;;;;;4957194;28;20049;-79
2022/02/24 10:56:33;;;;;;;6.32;1.40;;;;;;;;;;4957245;28;20114;-78
2022/02/24 10:58:59;;;;;;;4.30;1.05;;;;;;;;;;4943232;28;20063;-77
2022/02/24 11:01:26;;;;;;;2.17;0.93;;;;;;;;;;4979543;28;20035;-80
2022/02/24 11:04:02;;;;;;;3.17;0.80;;;;;;;;;;4993558;28;20060;-78
2022/02/24 11:06:33;;;;;;;11.43;1.63;;;;;;;;;;4993869;28;20065;-78
2022/02/24 11:09:00;;;;;;;8.57;1.90;;;;;;;;;;5008392;28;20125;-77
2022/02/24 11:11:30;;;;;;;11.90;1.13;;;;;;;;;;4988924;28;20030;-81
2022/02/24 11:13:57;;;;;;;1.85;0.88;;;;;;;;;;4988709;28;20042;-81
2022/02/24 11:16:24;;;;;;;2.85;0.73;;;;;;;;;;4989100;28;20045;-77
2022/02/24 11:18:52;;;;;;;2.20;0.98;;;;;;;;;;4973887;28;20026;-79
2022/02/24 11:21:18;;;;;;;3.35;1.13;;;;;;;;;;4988366;28;20180;-79
2022/02/24 11:23:46;;;;;;;2.85;1.25;;;;;;;;;;4989021;28;20027;-79
2022/02/24 11:26:12;;;;;;;2.65;0.80;;;;;;;;;;4990094;28;20027;-80
2022/02/24 11:28:44;;;;;;;1.70;0.73;;;;;;;;;;4977752;28;20530;-79
2022/02/24 11:31:17;;;;;;;2.80;0.57;;;;;;;;;;4993036;28;20027;-81
2022/02/24 11:33:43;;;;;;;;;;;;;;;;;;4993234;28;20143;-80
2022/02/24 11:36:12;;;;;;;2.22;0.80;;;;;;;;;;4992679;28;19950;-80
2022/02/24 11:38:40;;;;;;;4.90;1.13;;;;;;;;;;4996422;28;20165;-86
2022/02/24 11:41:07;;;;;;;2.45;0.70;;;;;;;;;;4997342;28;20067;-93
2022/02/24 11:43:36;;;;;;;1.25;0.60;;;;;;;;;;4980002;28;20022;-91
2022/02/24 11:46:06;;;;;;;2.75;0.75;;;;;;;;;;5001712;28;20062;-92
2022/02/24 11:48:35;;;;;;;1.90;0.85;;;;;;;;;;5000804;28;20039;-89
2022/02/24 11:51:01;;;;;;;3.25;0.85;;;;;;;;;;5005791;28;20545;-90
2022/02/24 11:54:00;;;;;;;5.25;0.93;;;;;;;;;;4986754;28;20031;-93
2022/02/24 11:56:35;;;;;;;8.57;1.27;;;;;;;;;;4999752;28;20426;-96
2022/02/24 12:05:33;;;;;;;3.13;1.05;;;;;;;;;;4983087;28;20058;-84
2022/02/24 12:08:03;;;;;;;3.42;0.90;;;;;;;;;;4979703;28;20038;-85
